• Join FlightAware (Why Join?)
  • Login
  • US Flag 
06:31PM EDT


 

Airport Tracker/Info


-or-


 

Live Flight TrackerFlight Track Log ✈ N319EE ✈ 07-Oct-2013 ✈ KPWM - KROC

Flight Track Log - Related Links

Times and Time Zones

All times are in EDT time to prevent confusion due to time zone crossing. See the N319EE flight status page for this flight to view local times or setup timezone preferences in your user account.

Time Position Orientation Groundspeed Altitude Reporting Facility
EDT Latitude Longitude Course Direction KTS MPH feet Rate Location/Type
10:26AM 43.7253 -70.3314 301° West 183 211 6,100  Level Boston Center
10:27AM 43.7264 -70.3917 271° West 163 188 7,500 1,560 Climbing Boston Center
10:28AM 43.7253 -70.4578 269° West 163 188 9,300 1,680 Climbing Boston Center
10:29AM 43.7244 -70.5239 269° West 168 193 10,900 1,680 Climbing Boston Center
10:30AM 43.6223 -70.8710 256° West  Level Estimated
10:30AM 43.7256 -70.5900 271° West 178 205 12,700  Level Boston Center
10:31AM 43.6092 -70.9631 259° West  Level FlightAware Approximate
10:31AM 43.7222 -70.6531 266° West 178 205 14,200  Level Boston Center
10:32AM 43.7192 -70.7194 266° West 173 199 15,700 1,320 Climbing Boston Center
10:33AM 43.7158 -70.7797 266° West 173 199 16,900 1,140 Climbing Boston Center
10:34AM 43.7125 -70.8403 266° West 166 191 18,000 960 Climbing Boston Center
10:35AM 43.7092 -70.9036 266° West 166 191 18,800 780 Climbing Boston Center
10:36AM 43.7039 -70.9611 263° West 166 191 19,600 600 Climbing Boston Center
10:37AM 43.7025 -71.0358 269° West 172 198 20,000 180 Climbing Boston Center
10:38AM 43.6972 -71.1164 265° West 200 230 20,000  Level Boston Center
10:39AM 43.6919 -71.2025 265° West 216 249 20,000  Level Boston Center
10:40AM 43.6867 -71.2889 265° West 222 255 20,000  Level Boston Center
10:41AM 43.6792 -71.3692 263° West 222 255 20,000  Level Boston Center
10:42AM 43.6758 -71.4611 267° West 222 255 20,000  Level Boston Center
10:43AM 43.6703 -71.5503 265° West 222 255 20,000  Level Boston Center
10:44AM 43.6647 -71.6336 265° West 222 255 20,000  Level Boston Center
10:45AM 43.6611 -71.7197 267° West 222 255 20,000  Level Boston Center
10:46AM 43.6553 -71.8058 265° West 228 262 20,000  Level Boston Center
10:47AM 43.6494 -71.8919 265° West 228 262 20,000  Level Boston Center
10:48AM 43.6436 -71.9811 265° West 233 268 20,000  Level Boston Center
10:49AM 43.6378 -72.0642 264° West 233 268 20,000  Level Boston Center
10:50AM 43.6317 -72.1503 264° West 233 268 20,000 -600 Level Boston Center
10:51AM 43.6256 -72.2422 265° West 240 276 18,900 -1,020 Descending Boston Center
10:52AM 43.6194 -72.3397 265° West 251 289 18,000 -480 Descending Boston Center
10:53AM 43.6111 -72.4372 263° West 256 295 18,000  Level Boston Center
10:54AM 43.6069 -72.5261 266° West 251 289 18,000  Level Boston Center
10:55AM 43.6006 -72.6150 264° West 251 289 18,000 -60 Level Boston Center
10:56AM 43.5942 -72.7039 264° West 246 283 17,900 -60 Descending Boston Center
10:57AM 43.5878 -72.7928 264° West 236 272 17,900  Level Boston Center
10:58AM 43.5811 -72.8786 264° West 236 272 17,900  Level Boston Center
10:59AM 43.5747 -72.9644 264° West 236 272 17,900  Level Boston Center
11:00AM 43.5658 -73.0361 260° West 236 272 17,900  Level Boston Center
11:01AM 43.5592 -73.1219 264° West 236 272 17,900  Level Boston Center
11:02AM 43.5522 -73.2106 264° West 236 272 17,900  Level Boston Center
11:03AM 43.5475 -73.2994 266° West 236 272 17,900  Level Boston Center
11:04AM 43.5386 -73.3853 262° West 236 272 17,900  Level Boston Center
11:05AM 43.5314 -73.4767 264° West 236 272 17,900  Level Boston Center
11:06AM 43.5244 -73.5625 264° West 236 272 17,900  Level Boston Center
11:07AM 43.5172 -73.6483 263° West 236 272 17,900  Level Boston Center
11:08AM 43.5103 -73.7311 263° West 236 272 17,900 -540 Level Boston Center
11:09AM 43.5028 -73.8256 264° West 241 277 16,900 -840 Descending Boston Center
11:10AM 43.4953 -73.9197 264° West 253 291 16,200 -420 Descending Boston Center
11:11AM 43.4858 -74.0083 262° West 253 291 16,100 -60 Descending Boston Center
11:12AM 43.4825 -74.0969 267° West 246 283 16,100 -60 Level Boston Center
11:13AM 43.4728 -74.1881 262° West 231 266 16,000 -60 Descending Boston Center
11:14AM 43.4653 -74.2739 263° West 231 266 16,000  Level Boston Center
11:15AM 43.4597 -74.3567 265° West 226 260 16,000  Level Boston Center
11:16AM 43.4519 -74.4422 263° West 226 260 16,000  Level Boston Center
11:17AM 43.4442 -74.5275 263° West 231 266 16,000  Level Boston Center
11:18AM 43.4364 -74.6133 263° West 231 266 16,000  Level Boston Center
11:19AM 43.4283 -74.6986 263° West 231 266 16,000  Level Boston Center
11:20AM 43.4206 -74.7842 263° West 231 266 16,000  Level Boston Center
11:21AM 43.4144 -74.8697 264° West 236 272 16,000  Level Boston Center
11:22AM 43.4064 -74.9522 262° West 236 272 16,000  Level Boston Center
11:23AM 43.3983 -75.0378 263° West 236 272 16,000  Level Boston Center
11:24AM 43.3903 -75.1203 262° West 236 272 16,000  Level Boston Center
11:25AM 43.3864 -75.1914 266° West 231 266 16,000  Level Boston Center
11:26AM 43.3756 -75.2881 261° West 231 266 16,000  Level Boston Center
11:27AM 43.3675 -75.3592 261° West 231 266 16,000  Level Boston Center
11:28AM 43.3614 -75.4389 264° West 220 253 16,000  Level Boston Center
11:29AM 43.3531 -75.5156 262° West 215 247 16,000  Level Boston Center
11:30AM 43.3469 -75.5922 264° West 215 247 16,000  Level Boston Center
11:31AM 43.3386 -75.6661 261° West 215 247 16,000  Level Boston Center
11:32AM 43.3303 -75.7400 261° West 209 241 16,000  Level Boston Center
11:35AM 43.3122 -75.9025 261° West 190 219 16,000 -180 Level Cleveland Center
11:36AM 43.3047 -75.9750 262° West 191 220 15,600 -720 Descending Cleveland Center
11:37AM 43.2969 -76.0608 263° West 221 254 14,600 -900 Descending Cleveland Center
11:38AM 43.2864 -76.1547 261° West 244 281 13,800 -660 Descending Cleveland Center
11:39AM 43.2769 -76.2464 262° West 245 282 13,300 -420 Descending Cleveland Center
11:40AM 43.2667 -76.3419 262° West 251 289 13,000 -600 Descending Cleveland Center
11:41AM 43.2542 -76.4553 261° West 251 289 12,100 -840 Descending Cleveland Center
11:42AM 43.2442 -76.5458 261° West 244 281 11,300 -540 Descending Cleveland Center
11:43AM 43.2358 -76.6300 262° West 230 265 11,000 -180 Descending Cleveland Center
11:44AM 43.2292 -76.7069 263° West 211 243 11,000  Level Cleveland Center
11:44AM 43.2261 -76.7478 264° West 197 227 11,000  Level Cleveland Center
11:45AM 43.2225 -76.7814 262° West 200 230 11,000  Level Cleveland Center
11:45AM 43.2183 -76.8211 262° West 197 227 11,000  Level Cleveland Center
11:46AM 43.2133 -76.8556 259° West 198 228 11,000  Level Cleveland Center
11:46AM 43.2075 -76.9022 260° West 198 228 11,000 -300 Level Cleveland Center
11:47AM 43.2086 -76.9311 273° West 199 229 10,700 -1,020 Descending Cleveland Center
11:47AM 43.2192 -76.9864 285° West 241 277 10,000 -1,080 Descending Cleveland Center
11:48AM 43.2228 -77.0189 279° West 228 262 9,600 -900 Descending Cleveland Center
11:48AM 43.2292 -77.0700 280° West 221 254 9,100 -1,200 Descending Cleveland Center
11:49AM 43.2339 -77.1097 279° West 222 255 8,400 -1,560 Descending Cleveland Center
11:49AM 43.2400 -77.1453 283° West 215 247 7,700 -1,560 Descending Cleveland Center
11:50AM 43.2450 -77.1892 279° West 215 247 6,800 -1,680 Descending Cleveland Center
11:50AM 43.2483 -77.2231 278° West 204 235 6,000 -1,860 Descending Cleveland Center
11:51AM 43.2483 -77.2619 270° West 202 232 4,900 -1,920 Descending Cleveland Center
11:51AM 43.2469 -77.2950 267° West 190 219 4,100 -1,980 Descending Cleveland Center
11:52AM 43.2469 -77.3494 270° West 193 222 2,900 -1,440 Descending Cleveland Center
11:52AM 43.2467 -77.3733 269° West 192 221 2,500 -420 Descending Cleveland Center
11:53AM 43.2456 -77.4203 268° West 189 217 2,500  Level Cleveland Center
11:53AM 43.2481 -77.4378 281° West 184 212 2,500  Level Cleveland Center
11:54AM 43.2483 -77.4864 270° West 179 206 2,500  Level Cleveland Center
11:54AM 43.2497 -77.5019 277° West 167 192 2,500  Level Cleveland Center
11:55AM 43.2472 -77.5486 266° West 169 194 2,500  Level Cleveland Center
11:55AM 43.2386 -77.5658 236° Southwest 165 190 2,500  Level Cleveland Center
11:56AM 43.2161 -77.5942 223° Southwest 165 190 2,500  Level Cleveland Center
11:56AM 43.2053 -77.6064 219° Southwest 166 191 2,500 -600 Level Cleveland Center
11:57AM 43.1739 -77.6328 212° Southwest 122 140 1,800 -660 Descending Cleveland Center
11:58AM 43.1528 -77.6483 208° Southwest 138 159 1,300 -720 Descending Cleveland Center
11:58AM 43.1450 -77.6569 219° Southwest 124 143 1,100 -720 Descending Cleveland Center
11:59AM 43.1250 -77.6719 209° Southwest 128 147 600 -600 Descending Cleveland Center
12:01PM 43.1167 -77.6667 236° Southwest  Level FlightAware Approximate